createdAt,value
2022-08-17T00:00:43.215Z,7.05
2022-08-17T00:03:15.629Z,7.15
2022-08-17T00:05:47.169Z,7.30
2022-08-17T00:08:16.555Z,6.90
2022-08-17T00:10:45.921Z,7.35
2022-08-17T00:13:21.639Z,7.65
2022-08-17T00:15:50.329Z,7.57
2022-08-17T00:19:01.550Z,7.93
2022-08-17T00:21:10.833Z,7.13
2022-08-17T00:23:47.818Z,6.60
2022-08-17T00:26:43.428Z,7.32
2022-08-17T00:29:08.280Z,6.40
2022-08-17T00:31:37.391Z,6.75
2022-08-17T00:34:10.101Z,6.65
2022-08-17T00:36:38.926Z,6.88
2022-08-17T00:39:07.518Z,6.45
2022-08-17T00:41:36.711Z,6.32
2022-08-17T00:44:12.316Z,5.93
2022-08-17T00:46:42.263Z,6.32
2022-08-17T00:49:13.405Z,6.00
2022-08-17T00:51:44.306Z,6.32
2022-08-17T00:54:14.354Z,5.70
2022-08-17T00:56:44.755Z,6.50
2022-08-17T00:59:15.518Z,7.00
2022-08-17T01:01:44.447Z,7.05
2022-08-17T01:04:14.836Z,7.03
2022-08-17T01:06:45.475Z,7.20
2022-08-17T01:09:14.619Z,7.13
2022-08-17T01:11:43.248Z,7.35
2022-08-17T01:14:11.841Z,7.38
2022-08-17T01:16:40.683Z,7.18
2022-08-17T01:19:12.826Z,7.20
2022-08-17T01:21:45.724Z,6.68
2022-08-17T01:24:16.171Z,6.82
2022-08-17T01:26:45.286Z,7.38
2022-08-17T01:29:14.309Z,7.78
2022-08-17T01:31:46.584Z,6.80
2022-08-17T01:34:16.359Z,7.25
2022-08-17T01:36:46.026Z,6.72
2022-08-17T01:39:20.001Z,7.43
2022-08-17T01:41:50.414Z,6.95
2022-08-17T01:44:19.373Z,6.65
2022-08-17T01:46:47.989Z,7.22
2022-08-17T01:49:16.668Z,6.60
2022-08-17T01:51:45.493Z,6.80
2022-08-17T01:54:15.476Z,6.75
2022-08-17T01:56:47.213Z,6.47
2022-08-17T01:59:16.749Z,7.03
2022-08-17T02:01:45.848Z,7.55
2022-08-17T02:04:14.802Z,6.75
2022-08-17T02:06:52.511Z,6.70
2022-08-17T02:09:25.639Z,6.30
2022-08-17T02:11:56.574Z,6.25
2022-08-17T02:14:25.677Z,7.00
2022-08-17T02:16:55.822Z,6.57
2022-08-17T02:19:24.500Z,6.22
2022-08-17T02:21:54.056Z,6.13
2022-08-17T02:24:59.568Z,6.78
2022-08-17T02:27:13.927Z,6.47
2022-08-17T02:29:42.534Z,6.97
2022-08-17T02:32:20.897Z,6.70
2022-08-17T02:34:56.378Z,6.63
2022-08-17T02:37:25.085Z,6.68
2022-08-17T02:39:53.919Z,62.25
2022-08-17T02:42:28.644Z,38.35
2022-08-17T02:44:57.994Z,56.42
2022-08-17T02:47:27.209Z,48.08
2022-08-17T02:49:56.199Z,49.13
2022-08-17T02:52:43.038Z,42.08
2022-08-17T02:55:14.459Z,48.38
2022-08-17T02:57:44.650Z,33.38
2022-08-17T03:00:14.562Z,31.08
2022-08-17T03:02:44.177Z,23.15
2022-08-17T03:05:13.774Z,18.00
2022-08-17T03:07:43.128Z,66.20
2022-08-17T03:10:12.796Z,70.47
2022-08-17T03:12:42.287Z,76.55
2022-08-17T03:15:15.343Z,62.55
2022-08-17T03:17:44.486Z,110.50
2022-08-17T03:20:14.253Z,78.82
2022-08-17T03:22:48.003Z,46.05
2022-08-17T03:25:23.484Z,30.88
2022-08-17T03:27:52.261Z,23.08
2022-08-17T03:30:22.621Z,15.40
2022-08-17T03:32:52.897Z,12.32
2022-08-17T03:35:23.049Z,10.40
2022-08-17T03:37:56.978Z,9.13
2022-08-17T03:40:55.703Z,7.75
2022-08-17T03:43:18.812Z,7.30
2022-08-17T03:46:06.382Z,7.28
2022-08-17T03:49:11.585Z,6.82
2022-08-17T03:51:57.904Z,6.32
2022-08-17T03:54:49.471Z,6.40
2022-08-17T03:57:19.297Z,6.60
2022-08-17T03:59:48.043Z,6.45
2022-08-17T04:02:20.312Z,6.55
2022-08-17T04:04:50.891Z,6.95
2022-08-17T04:07:20.541Z,6.37
2022-08-17T04:09:49.135Z,6.50
2022-08-17T04:12:18.198Z,5.88
2022-08-17T04:14:52.909Z,6.32
2022-08-17T04:17:25.808Z,6.32
2022-08-17T04:19:54.855Z,6.55
2022-08-17T04:22:32.446Z,6.45
2022-08-17T04:25:03.719Z,6.32
2022-08-17T04:27:32.350Z,6.13
2022-08-17T04:30:00.976Z,6.70
2022-08-17T04:33:00.650Z,6.13
2022-08-17T04:35:20.906Z,6.43
2022-08-17T04:37:49.520Z,6.00
2022-08-17T04:40:36.183Z,5.80
2022-08-17T04:43:06.073Z,6.57
2022-08-17T04:45:35.013Z,6.35
2022-08-17T04:48:05.633Z,6.68
2022-08-17T04:50:35.905Z,6.90
2022-08-17T04:53:05.089Z,5.90
2022-08-17T04:55:34.612Z,6.22
2022-08-17T04:58:03.433Z,6.05
2022-08-17T05:00:32.019Z,6.35
2022-08-17T05:03:00.678Z,6.43
2022-08-17T05:05:32.275Z,6.22
2022-08-17T05:08:03.591Z,6.85
2022-08-17T05:10:35.425Z,6.40
2022-08-17T05:13:06.983Z,6.88
2022-08-17T05:15:36.828Z,6.75
2022-08-17T05:18:05.804Z,6.38
2022-08-17T05:20:35.986Z,6.28
2022-08-17T05:23:07.122Z,5.57
2022-08-17T05:25:37.741Z,6.13
2022-08-17T05:28:07.001Z,5.57
2022-08-17T05:30:36.231Z,6.32
2022-08-17T05:33:06.438Z,5.80
2022-08-17T05:35:37.439Z,5.60
2022-08-17T05:38:06.127Z,5.40
2022-08-17T05:40:34.739Z,5.40
2022-08-17T05:43:07.269Z,5.68
2022-08-17T05:45:55.575Z,5.30
2022-08-17T05:48:39.327Z,5.28
2022-08-17T05:51:23.941Z,5.57
2022-08-17T05:53:59.615Z,5.32
2022-08-17T05:56:33.843Z,4.97
2022-08-17T05:59:07.035Z,4.88
2022-08-17T06:01:37.795Z,5.00
2022-08-17T06:04:14.961Z,5.43
2022-08-17T06:06:46.715Z,5.35
2022-08-17T06:11:53.453Z,5.88
2022-08-17T06:14:31.367Z,5.13
2022-08-17T06:17:02.456Z,5.43
2022-08-17T06:19:35.423Z,5.07
2022-08-17T06:22:05.847Z,5.55
2022-08-17T06:24:37.180Z,5.03
2022-08-17T06:27:11.027Z,5.18
2022-08-17T06:29:43.912Z,5.18
2022-08-17T06:32:14.796Z,4.90
2022-08-17T06:34:43.827Z,5.30
2022-08-17T06:37:19.937Z,4.88
2022-08-17T06:39:52.149Z,5.50
2022-08-17T06:43:02.331Z,5.22
2022-08-17T06:45:17.193Z,5.00
2022-08-17T06:47:49.291Z,5.28
2022-08-17T06:50:21.313Z,5.00
2022-08-17T06:52:53.179Z,4.82
2022-08-17T06:55:26.288Z,5.30
2022-08-17T06:57:59.901Z,4.90
2022-08-17T07:00:29.948Z,5.47
2022-08-17T07:03:00.995Z,5.07
2022-08-17T07:05:34.050Z,5.30
2022-08-17T07:08:04.781Z,5.28
2022-08-17T07:10:37.054Z,5.10
2022-08-17T07:13:15.625Z,5.07
2022-08-17T07:15:44.948Z,5.03
2022-08-17T07:18:13.566Z,5.30
2022-08-17T07:20:43.914Z,5.68
2022-08-17T07:23:19.019Z,5.50
2022-08-17T07:25:47.942Z,5.13
2022-08-17T07:28:22.907Z,5.78
2022-08-17T07:30:53.227Z,4.85
2022-08-17T07:33:23.736Z,5.32
2022-08-17T07:35:52.384Z,4.93
2022-08-17T07:38:24.842Z,5.80
2022-08-17T07:41:02.756Z,5.50
2022-08-17T07:43:34.039Z,5.70
2022-08-17T07:46:24.147Z,5.10
2022-08-17T07:48:53.988Z,5.03
2022-08-17T07:51:26.124Z,5.30
2022-08-17T07:54:12.890Z,5.13
2022-08-17T07:56:44.287Z,4.88
2022-08-17T07:59:23.356Z,5.05
2022-08-17T08:02:03.535Z,5.03
2022-08-17T08:04:59.198Z,4.90
2022-08-17T08:07:27.506Z,5.40
2022-08-17T08:10:02.828Z,5.88
2022-08-17T08:12:34.462Z,5.05
2022-08-17T08:15:10.418Z,5.18
2022-08-17T08:17:48.693Z,5.00
2022-08-17T08:20:50.864Z,4.95
2022-08-17T08:23:15.478Z,4.78
2022-08-17T08:25:53.302Z,5.38
2022-08-17T08:28:26.092Z,5.50
2022-08-17T08:31:00.884Z,5.50
2022-08-17T08:33:33.909Z,5.30
2022-08-17T08:36:08.953Z,5.05
2022-08-17T08:38:42.629Z,5.07
2022-08-17T08:41:21.831Z,5.50
2022-08-17T08:43:54.527Z,5.15
2022-08-17T08:46:30.028Z,5.13
2022-08-17T08:49:11.984Z,5.75
2022-08-17T08:51:47.824Z,5.40
2022-08-17T08:54:26.678Z,5.30
2022-08-17T08:57:23.282Z,5.50
2022-08-17T08:59:57.816Z,5.13
2022-08-17T09:02:47.978Z,5.75
2022-08-17T09:05:22.258Z,5.80
2022-08-17T09:07:57.679Z,6.10
2022-08-17T09:10:29.471Z,5.25
2022-08-17T09:15:41.257Z,5.40
2022-08-17T09:19:02.550Z,5.50
2022-08-17T09:21:07.949Z,5.82
2022-08-17T09:26:08.358Z,5.10
2022-08-17T09:28:37.946Z,5.10
2022-08-17T09:31:09.543Z,5.20
2022-08-17T09:33:42.495Z,5.20
2022-08-17T09:36:12.324Z,5.22
2022-08-17T09:38:43.551Z,5.95
2022-08-17T09:41:17.650Z,4.95
2022-08-17T09:43:51.158Z,5.50
2022-08-17T09:46:25.248Z,5.38
2022-08-17T09:48:58.705Z,5.20
2022-08-17T09:51:32.761Z,5.03
2022-08-17T09:54:21.093Z,5.70
2022-08-17T09:57:11.766Z,5.05
2022-08-17T09:59:49.453Z,5.60
2022-08-17T10:02:26.303Z,5.38
2022-08-17T10:04:58.812Z,5.10
2022-08-17T10:07:30.522Z,5.20
2022-08-17T10:12:33.317Z,4.70
2022-08-17T10:15:07.973Z,5.50
2022-08-17T10:17:40.734Z,5.25
2022-08-17T10:20:14.412Z,6.07
2022-08-17T10:23:05.460Z,5.35
2022-08-17T10:25:55.980Z,5.50
2022-08-17T10:28:29.496Z,5.78
2022-08-17T10:31:23.392Z,5.32
2022-08-17T10:33:53.414Z,4.75
2022-08-17T10:36:27.182Z,4.90
2022-08-17T10:39:03.589Z,6.03
2022-08-17T10:41:40.309Z,4.93
2022-08-17T10:44:38.144Z,5.80
2022-08-17T10:47:08.519Z,5.53
2022-08-17T10:49:37.687Z,5.55
2022-08-17T10:52:27.952Z,6.10
2022-08-17T10:55:13.645Z,5.45
2022-08-17T10:57:44.815Z,5.10
2022-08-17T11:00:37.062Z,5.38
2022-08-17T11:03:16.957Z,5.35
2022-08-17T11:05:53.915Z,6.47
2022-08-17T11:08:31.422Z,5.00
2022-08-17T11:11:15.692Z,6.05
2022-08-17T11:13:48.464Z,5.75
2022-08-17T11:16:29.899Z,5.50
2022-08-17T11:19:22.630Z,5.43
2022-08-17T11:21:59.946Z,5.57
2022-08-17T11:24:35.949Z,5.55
2022-08-17T11:27:12.170Z,5.72
2022-08-17T11:29:52.954Z,5.15
2022-08-17T11:32:47.361Z,5.80
2022-08-17T11:35:31.588Z,5.47
2022-08-17T11:38:14.043Z,5.25
2022-08-17T11:41:01.244Z,5.38
2022-08-17T11:43:50.963Z,5.60
2022-08-17T11:46:22.546Z,5.50
2022-08-17T11:49:15.528Z,5.47
2022-08-17T11:52:08.900Z,5.43
2022-08-17T11:54:39.188Z,5.47
2022-08-17T11:57:22.635Z,5.05
2022-08-17T12:00:10.663Z,5.43
2022-08-17T12:02:47.893Z,5.47
2022-08-17T12:05:28.692Z,5.25
2022-08-17T12:08:07.826Z,5.50
2022-08-17T12:10:37.628Z,5.60
2022-08-17T12:13:08.797Z,5.05
2022-08-17T12:15:41.254Z,5.53
2022-08-17T12:18:20.082Z,5.70
2022-08-17T12:20:56.657Z,5.70
2022-08-17T12:23:28.280Z,5.78
2022-08-17T12:25:59.379Z,5.43
2022-08-17T12:28:29.554Z,5.38
2022-08-17T12:31:01.122Z,5.75
2022-08-17T12:33:31.702Z,6.07
2022-08-17T12:36:02.857Z,6.35
2022-08-17T12:38:35.164Z,5.68
2022-08-17T12:41:25.391Z,6.10
2022-08-17T12:43:58.678Z,5.72
2022-08-17T12:46:27.305Z,5.60
2022-08-17T12:49:12.247Z,6.07
2022-08-17T12:51:44.431Z,5.82
2022-08-17T12:54:23.633Z,5.75
2022-08-17T12:56:52.259Z,6.40
2022-08-17T12:59:30.100Z,5.88
2022-08-17T13:01:59.638Z,6.10
2022-08-17T13:04:29.962Z,5.70
2022-08-17T13:07:00.048Z,5.70
2022-08-17T13:09:35.842Z,5.60
2022-08-17T13:12:10.944Z,5.50
2022-08-17T13:14:39.590Z,5.88
2022-08-17T13:17:13.322Z,5.32
2022-08-17T13:19:50.927Z,5.70
2022-08-17T13:22:24.113Z,5.13
2022-08-17T13:24:54.479Z,5.40
2022-08-17T13:27:24.237Z,5.25
2022-08-17T13:29:53.961Z,5.45
2022-08-17T13:32:24.041Z,5.60
2022-08-17T13:35:14.256Z,5.72
2022-08-17T13:37:58.138Z,5.60
2022-08-17T13:40:32.384Z,5.72
2022-08-17T13:43:03.352Z,5.40
2022-08-17T13:45:38.948Z,5.40
2022-08-17T13:48:11.831Z,5.63
2022-08-17T13:50:46.448Z,5.40
2022-08-17T13:53:22.299Z,5.18
2022-08-17T13:55:52.453Z,5.43
2022-08-17T13:58:22.411Z,4.93
2022-08-17T14:00:51.733Z,5.10
2022-08-17T14:03:21.510Z,5.35
2022-08-17T14:05:52.233Z,5.35
2022-08-17T14:08:21.537Z,5.38
2022-08-17T14:10:52.357Z,5.28
2022-08-17T14:13:21.252Z,5.07
2022-08-17T14:15:53.988Z,5.43
2022-08-17T14:18:53.507Z,4.97
2022-08-17T14:21:15.470Z,4.68
2022-08-17T14:23:49.076Z,5.43
2022-08-17T14:26:23.804Z,5.03
2022-08-17T14:28:56.652Z,4.63
2022-08-17T14:31:27.495Z,5.38
2022-08-17T14:33:58.935Z,5.90
2022-08-17T14:36:28.921Z,5.50
2022-08-17T14:38:57.564Z,5.18
2022-08-17T14:41:26.317Z,5.15
2022-08-17T14:43:55.103Z,5.50
2022-08-17T14:46:23.679Z,4.80
2022-08-17T14:48:57.156Z,5.22
2022-08-17T14:51:27.579Z,5.32
2022-08-17T14:53:58.312Z,4.95
2022-08-17T14:56:27.264Z,4.80
2022-08-17T14:59:00.369Z,5.28
2022-08-17T15:01:29.407Z,4.93
2022-08-17T15:03:58.259Z,5.22
2022-08-17T15:06:26.887Z,5.38
2022-08-17T15:08:56.975Z,4.70
2022-08-17T15:11:25.926Z,4.45
2022-08-17T15:13:54.476Z,5.00
2022-08-17T15:16:23.600Z,4.78
2022-08-17T15:18:52.714Z,4.57
2022-08-17T15:21:21.345Z,4.55
2022-08-17T15:23:49.899Z,4.72
2022-08-17T15:26:25.633Z,4.43
2022-08-17T15:28:57.364Z,4.63
2022-08-17T15:31:31.715Z,4.63
2022-08-17T15:34:01.459Z,4.78
2022-08-17T15:36:30.136Z,4.57
2022-08-17T15:38:58.995Z,4.15
2022-08-17T15:41:29.382Z,4.80
2022-08-17T15:43:58.034Z,4.35
2022-08-17T15:46:27.893Z,4.72
2022-08-17T15:48:58.936Z,4.30
2022-08-17T15:51:28.937Z,4.43
2022-08-17T15:53:58.473Z,4.70
2022-08-17T15:56:27.535Z,4.75
2022-08-17T15:58:57.518Z,4.57
2022-08-17T16:02:15.385Z,4.53
2022-08-17T16:04:30.401Z,5.00
2022-08-17T16:06:59.967Z,6.07
2022-08-17T16:09:29.116Z,5.55
2022-08-17T16:11:57.715Z,5.80
2022-08-17T16:14:33.895Z,5.32
2022-08-17T16:17:04.484Z,5.10
2022-08-17T16:19:34.302Z,4.97
2022-08-17T16:22:03.077Z,5.20
2022-08-17T16:24:32.121Z,4.88
2022-08-17T16:27:01.286Z,5.20
2022-08-17T16:29:31.303Z,5.20
2022-08-17T16:32:01.353Z,5.18
2022-08-17T16:34:30.005Z,4.75
2022-08-17T16:36:58.728Z,5.35
2022-08-17T16:39:28.123Z,4.85
2022-08-17T16:41:56.955Z,4.43
2022-08-17T16:44:27.478Z,4.90
2022-08-17T16:46:57.970Z,4.63
2022-08-17T16:49:35.538Z,5.07
2022-08-17T16:52:05.630Z,4.40
2022-08-17T16:54:35.474Z,5.28
2022-08-17T16:57:05.623Z,4.68
2022-08-17T16:59:41.018Z,4.68
2022-08-17T17:02:14.435Z,4.97
2022-08-17T17:04:45.152Z,4.80
2022-08-17T17:07:21.821Z,5.30
2022-08-17T17:09:52.683Z,4.75
2022-08-17T17:13:02.970Z,4.63
2022-08-17T17:15:10.696Z,4.55
2022-08-17T17:17:41.136Z,4.70
2022-08-17T17:20:12.169Z,4.53
2022-08-17T17:22:47.131Z,5.00
2022-08-17T17:25:19.377Z,4.65
2022-08-17T17:27:50.955Z,4.65
2022-08-17T17:30:21.750Z,4.80
2022-08-17T17:32:54.336Z,5.10
2022-08-17T17:35:26.136Z,4.68
2022-08-17T17:40:24.998Z,4.85
2022-08-17T17:42:55.132Z,5.00
2022-08-17T17:45:26.019Z,4.78
2022-08-17T17:47:56.032Z,4.77
2022-08-17T17:50:38.565Z,5.28
2022-08-17T17:53:10.207Z,5.05
2022-08-17T17:55:46.504Z,4.70
2022-08-17T17:58:21.491Z,4.72
2022-08-17T18:00:54.917Z,4.80
2022-08-17T18:03:32.440Z,4.60
2022-08-17T18:06:16.281Z,4.78
2022-08-17T18:08:52.912Z,5.25
2022-08-17T18:11:58.892Z,5.00
2022-08-17T18:14:33.994Z,4.85
2022-08-17T18:17:02.747Z,5.22
2022-08-17T18:19:32.926Z,4.88
2022-08-17T18:22:06.731Z,4.82
2022-08-17T18:24:37.926Z,5.00
2022-08-17T18:27:08.383Z,4.95
2022-08-17T18:29:42.248Z,4.95
2022-08-17T18:32:28.583Z,5.32
2022-08-17T18:34:59.743Z,5.20
2022-08-17T18:37:34.348Z,4.95
2022-08-17T18:40:10.311Z,5.30
2022-08-17T18:42:38.969Z,5.20
2022-08-17T18:45:07.891Z,5.80
2022-08-17T18:47:36.655Z,5.35
2022-08-17T18:50:20.288Z,5.57
2022-08-17T18:52:51.440Z,5.55
2022-08-17T18:55:22.499Z,6.13
2022-08-17T18:57:52.406Z,6.18
2022-08-17T19:00:34.414Z,5.70
2022-08-17T19:05:34.956Z,6.45
2022-08-17T19:08:18.425Z,5.95
2022-08-17T19:10:49.095Z,6.07
2022-08-17T19:13:23.958Z,6.20
2022-08-17T19:16:13.916Z,6.68
2022-08-17T19:18:47.370Z,6.03
2022-08-17T19:21:17.673Z,6.57
2022-08-17T19:23:54.124Z,56.55
2022-08-17T19:26:51.240Z,97.53
2022-08-17T19:29:19.518Z,297.33
2022-08-17T19:31:51.210Z,173.10
2022-08-17T19:34:30.149Z,141.50
2022-08-17T19:37:04.407Z,140.52
2022-08-17T19:39:38.678Z,130.57
2022-08-17T19:42:11.175Z,127.43
2022-08-17T19:44:53.019Z,111.47
2022-08-17T19:50:13.178Z,120.25
2022-08-17T19:55:19.836Z,162.57
2022-08-17T19:58:00.082Z,136.38
2022-08-17T20:00:31.024Z,141.63
2022-08-17T20:03:05.919Z,126.38
2022-08-17T20:05:54.461Z,104.78
2022-08-17T20:08:27.655Z,111.22
2022-08-17T20:10:59.317Z,150.97
2022-08-17T20:16:03.907Z,223.20
2022-08-17T20:18:37.136Z,174.50
2022-08-17T20:21:20.041Z,136.77
2022-08-17T20:23:53.537Z,125.53
2022-08-17T20:26:26.329Z,121.75
2022-08-17T20:29:09.615Z,113.45
2022-08-17T20:31:44.643Z,111.90
2022-08-17T20:34:36.689Z,102.90
2022-08-17T20:37:08.644Z,80.68
2022-08-17T20:39:39.879Z,73.10
2022-08-17T20:42:13.419Z,61.25
2022-08-17T20:44:43.035Z,56.97
2022-08-17T20:47:18.283Z,56.58
2022-08-17T20:49:52.145Z,46.28
2022-08-17T20:52:39.267Z,44.22
2022-08-17T20:55:08.436Z,40.78
2022-08-17T20:57:48.836Z,38.38
2022-08-17T21:00:50.712Z,36.75
2022-08-17T21:03:48.030Z,41.53
2022-08-17T21:06:23.187Z,36.25
2022-08-17T21:08:54.377Z,30.90
2022-08-17T21:12:02.346Z,29.50
2022-08-17T21:14:45.321Z,27.23
2022-08-17T21:17:31.814Z,24.25
2022-08-17T21:20:12.608Z,23.15
2022-08-17T21:22:49.133Z,20.80
2022-08-17T21:25:24.549Z,20.88
2022-08-17T21:27:59.690Z,20.05
2022-08-17T21:30:47.611Z,19.08
2022-08-17T21:33:23.801Z,19.55
2022-08-17T21:35:53.681Z,20.42
2022-08-17T21:38:36.964Z,21.20
2022-08-17T21:41:06.224Z,20.00
2022-08-17T21:43:36.514Z,19.90
2022-08-17T21:46:06.506Z,18.17
2022-08-17T21:48:42.524Z,18.15
2022-08-17T21:51:12.844Z,20.77
2022-08-17T21:53:53.831Z,50.70
2022-08-17T21:56:24.091Z,92.87
2022-08-17T21:58:56.381Z,117.82
2022-08-17T22:01:26.616Z,155.00
2022-08-17T22:04:00.147Z,157.65
2022-08-17T22:06:30.696Z,148.90
2022-08-17T22:09:02.323Z,162.48
2022-08-17T22:11:31.613Z,146.15
2022-08-17T22:14:05.144Z,130.02
2022-08-17T22:16:34.890Z,137.65
2022-08-17T22:19:03.572Z,149.75
2022-08-17T22:21:32.264Z,172.60
2022-08-17T22:24:06.747Z,179.45
2022-08-17T22:26:53.931Z,185.85
2022-08-17T22:29:42.617Z,147.68
2022-08-17T22:32:11.384Z,81.15
2022-08-17T22:34:40.000Z,77.72
2022-08-17T22:37:27.470Z,79.05
2022-08-17T22:40:00.468Z,71.60
2022-08-17T22:42:29.247Z,43.67
2022-08-17T22:44:57.845Z,27.83
2022-08-17T22:47:30.501Z,37.17
2022-08-17T22:50:00.734Z,36.22
2022-08-17T22:52:34.485Z,32.10
2022-08-17T22:55:24.492Z,25.42
2022-08-17T22:58:11.034Z,15.80
2022-08-17T23:00:41.045Z,13.32
2022-08-17T23:03:12.411Z,11.25
2022-08-17T23:05:45.042Z,11.57
2022-08-17T23:08:14.040Z,10.05
2022-08-17T23:10:45.301Z,9.65
2022-08-17T23:13:13.986Z,9.80
2022-08-17T23:15:43.039Z,9.13
2022-08-17T23:18:11.696Z,8.85
2022-08-17T23:20:41.928Z,8.98
2022-08-17T23:23:11.700Z,8.80
2022-08-17T23:25:40.302Z,8.85
2022-08-17T23:28:11.330Z,8.43
2022-08-17T23:30:41.595Z,8.60
2022-08-17T23:33:11.584Z,8.40
2022-08-17T23:35:41.092Z,8.48
2022-08-17T23:38:10.343Z,8.43
2022-08-17T23:40:39.986Z,8.55
2022-08-17T23:43:23.569Z,8.65
2022-08-17T23:45:54.161Z,8.38
2022-08-17T23:48:35.479Z,8.88
2022-08-17T23:51:09.144Z,7.95
2022-08-17T23:53:38.302Z,8.02
2022-08-17T23:56:10.267Z,8.77
2022-08-17T23:58:42.242Z,7.45
